Current Metar reports for airports in our Region

Nearby METAR Reports

Metar reports are mainly used by pilots for information on what is happening at their destination during their pre-flight weather briefings and by meteorologists to assist in short term forecasts. A raw Metar is one of the most universal ways to communicate weather information in the world and are usually transmitted by airports, but some come from permanent sanctioned weather observatories.

Listed below are Metars from airports within 100 miles of our station here in Smethport Pa. The first one of course is the Bradford Regional Airport, then the Olean NY airport and so on. Each airport has it's own table to display it's data and at the bottom of the table is 'Raw' Metar for each airport. Most pilots and weather forecasters can look at the raw data and tell you what is up, but we use a script that handles all of the details for us.

KBFD - Bradford, Pennsylvania, USA
Distance from station: NW 7mi, 11km
Updated: Sat, 20-Oct-2018 8:53pm EDT
Light rain, Overcast
Light rain, Overcast
 Wind from W
Wind: W 8 mph , 13 km/h
Temperature: 37°F , 3°C
Wind Chill: 31°F , -1°C
Dew Point: 37°F , 3°C
Humidity: 100%
Barometer: 29.68 inHg , 1005.1 hPa
Summary: Light Rain
Clouds: Overcast
Visibility: 10 miles , 16 km
Cloud details: Overcast 700 ft
2018/10/21 00:53 KBFD 210053Z AUTO 27007KT 10SM -RA OVC007 03/03 A2968 RMK AO2 CIG 005V010 SLP059 P0000 T00330028
KOLE - Olean, New York, USA
Distance from station: NNE 37mi, 59km
Updated: Sat, 20-Oct-2018 8:55pm EDT
Light rain, Overcast
Light rain, Overcast
 Wind from calm
Wind: Calm
Temperature: 34°F , 1°C
Dew Point: 34°F , 1°C
Humidity: 100%
Barometer: 29.68 inHg , 1005.1 hPa
Summary: Light Rain
Clouds: Overcast
Visibility: 10 miles , 16 km
Cloud details: Overcast 500 ft
2018/10/21 00:55 KOLE 210055Z AUTO 00000KT 10SM -RA OVC005 01/01 A2968 RMK AO2 LTG DSNT S
 
KELZ - Wellsville, New York, USA
Distance from station: NE 40mi, 64km
Updated: Sat, 20-Oct-2018 8:56pm EDT
Light rain, Mist, Overcast
Light rain, Mist, Overcast
 Wind from NNW
Wind: NNW 8 mph , 13 km/h
Temperature: 39°F , 4°C
Wind Chill: 33°F , 1°C
Dew Point: 37°F , 3°C
Humidity: 93%
Barometer: 29.67 inHg , 1004.7 hPa
Summary: Light rain, Mist
Clouds: Overcast
Visibility: 5 miles , 8 km
Cloud details: Partly Cloudy 800 ft
Overcast 1400 ft
2018/10/21 00:56 KELZ 210056Z AUTO 33007KT 5SM -RA BR SCT008 OVC014 04/03 A2967 RMK AO2 SLP057 P0003 T00440033
KDUJ - Du Bois, Pennsylvania, USA
Distance from station: SSW 42mi, 68km
Updated: Sat, 20-Oct-2018 9:05pm EDT
Overcast
Overcast
 Wind from WNW
Wind: WNW 10 mph , 17 km/h
Temperature: 39°F , 4°C
Wind Chill: 32°F , 0°C
Dew Point: 36°F , 2°C
Humidity: 87%
Barometer: 29.70 inHg , 1005.8 hPa
Clouds: Overcast
Visibility: 10 miles , 16 km
Cloud details: Partly Cloudy 1100 ft
Mostly Cloudy 4900 ft
Overcast 6500 ft
2018/10/21 01:05 KDUJ 210105Z AUTO 29009KT 10SM SCT011 BKN049 OVC065 04/02 A2970 RMK AO2 T00440022
 
KJHW - Jamestown, New York, USA
Distance from station: NW 46mi, 75km
Updated: Sat, 20-Oct-2018 8:56pm EDT
Light rain, Overcast
Light rain, Overcast
 Wind from SW
Wind: SW 3 mph , 6 km/h
Temperature: 37°F , 3°C
Dew Point: 37°F , 3°C
Humidity: 100%
Barometer: 29.69 inHg , 1005.4 hPa
Summary: Light Rain
Clouds: Overcast
Visibility: 9 miles , 14 km
Cloud details: Overcast 400 ft
2018/10/21 00:56 KJHW 210056Z AUTO 23003KT 9SM -RA OVC004 03/03 A2969 RMK AO2 CIG 003V009 SLP069 P0000 T00330028
KFIG - Clearfield, Pennsylvania, USA
Distance from station: S 47mi, 75km
Updated: Sat, 20-Oct-2018 9:04pm EDT
Mostly Cloudy
Mostly Cloudy
 Wind from W
Wind: W 8 mph , 13 km/h
Temperature: 43°F , 6°C
Wind Chill: 38°F , 3°C
Dew Point: 37°F , 3°C
Humidity: 81%
Barometer: 29.70 inHg , 1005.8 hPa
Clouds: Mostly Cloudy
Visibility: 10 miles , 16 km
Cloud details: Partly Cloudy 2100 ft
Mostly Cloudy 2800 ft
Mostly Cloudy 10000 ft
2018/10/21 01:04 KFIG 210104Z AUTO 28007KT 10SM SCT021 BKN028 BKN100 06/03 A2970 RMK AO2 T00610033
 
KDKK - Dunkirk, New York, USA
Distance from station: NW 66mi, 106km
Updated: Sat, 20-Oct-2018 8:53pm EDT
Overcast
Overcast
 Wind from SSW
Wind: SSW 9 mph , 15 km/h
Temperature: 43°F , 6°C
Wind Chill: 38°F , 3°C
Dew Point: 41°F , 5°C
Humidity: 93%
Barometer: 29.69 inHg , 1005.4 hPa
Clouds: Overcast
Visibility: 10 miles , 16 km
Cloud details: Few Clouds 5500 ft
Overcast 7000 ft
2018/10/21 00:53 KDKK 210053Z AUTO 20008KT 10SM FEW055 OVC070 06/05 A2969 RMK AO2 RAE46 SLP055 P0000 T00610050
KUNV - State College, Pennsylvania, USA
Distance from station: SSE 71mi, 114km
Updated: Sat, 20-Oct-2018 8:53pm EDT
Light rain, Mostly cloudy
Light rain, Mostly cloudy
 Wind from NW
Wind: NW 9 mph , 15 km/h
Temperature: 45°F , 7°C
Wind Chill: 40°F , 4°C
Dew Point: 39°F , 4°C
Humidity: 81%
Barometer: 29.71 inHg , 1006.1 hPa
Summary: Light Rain
Clouds: Mostly Cloudy
Visibility: 7 miles , 11 km
Cloud details: Partly Cloudy 2000 ft
Mostly Cloudy 3900 ft
2018/10/21 00:53 KUNV 210053Z 32008KT 7SM -RA SCT020 BKN039 07/04 A2971
 
KFKL - Franklin, Pennsylvania, USA
Distance from station: WSW 72mi, 116km
Updated: Sat, 20-Oct-2018 8:56pm EDT
Light rain, Overcast
Light rain, Overcast
 Wind from W
Wind: W 7 mph , 11 km/h
Temperature: 39°F , 4°C
Wind Chill: 34°F , 1°C
Dew Point: 37°F , 3°C
Humidity: 93%
Barometer: 29.74 inHg , 1007.1 hPa
Summary: Light Rain
Clouds: Overcast
Visibility: 10 miles , 16 km
Cloud details: Mostly Cloudy 1000 ft
Mostly Cloudy 1600 ft
Overcast 2400 ft
2018/10/21 00:56 KFKL 210056Z AUTO 26006KT 10SM -RA BKN010 BKN016 OVC024 04/03 A2974 RMK AO2 RAE21B56 CIG 008V014 SLP077 P0000 T00440033
KDSV - Dansville, New York, USA
Distance from station: NE 73mi, 117km
Updated: Sat, 20-Oct-2018 8:54pm EDT
Overcast
Overcast
 Wind from SSE
Wind: SSE 5 mph , 7 km/h
Temperature: 43°F , 6°C
Wind Chill: 40°F , 4°C
Dew Point: 39°F , 4°C
Humidity: 87%
Barometer: 29.69 inHg , 1005.4 hPa
Clouds: Overcast
Visibility: 10 miles , 16 km
Cloud details: Partly Cloudy 3800 ft
Overcast 6500 ft
2018/10/21 00:54 KDSV 210054Z AUTO 15004KT 10SM SCT038 OVC065 06/04 A2969 RMK AO2 SLP065 T00610039
 
KIDI - Indiana/Stewart, Pennsylvania, USA
Distance from station: SSW 81mi, 130km
Updated: Sat, 20-Oct-2018 8:55pm EDT
Overcast
Overcast
 Wind from NW
Wind: NW 12 mph , 19 km/h, Gust: 21 mph , 33 km/h
Temperature: 45°F , 7°C
Wind Chill: 39°F , 4°C
Dew Point: 39°F , 4°C
Humidity: 81%
Barometer: 29.77 inHg , 1008.1 hPa
Clouds: Overcast
Visibility: 10 miles , 16 km
Cloud details: Few Clouds 2300 ft
Mostly Cloudy 3200 ft
Overcast 7500 ft
2018/10/21 00:55 KIDI 210055Z AUTO 31010G18KT 10SM FEW023 BKN032 OVC075 07/04 A2977 RMK A01
KBUF - Buffalo/Cheektow, New York, USA
Distance from station: N 84mi, 136km
Updated: Sat, 20-Oct-2018 8:54pm EDT
Overcast
Overcast
 Wind from WSW
Wind: WSW 10 mph , 17 km/h
Temperature: 45°F , 7°C
Wind Chill: 40°F , 4°C
Dew Point: 43°F , 6°C
Humidity: 93%
Barometer: 29.68 inHg , 1005.1 hPa
Clouds: Overcast
Visibility: 10 miles , 16 km
Cloud details: Partly Cloudy 1200 ft
Mostly Cloudy 6000 ft
Overcast 7500 ft
2018/10/21 00:54 KBUF 210054Z 24009KT 10SM SCT012 BKN060 OVC075 07/06 A2968 RMK AO2 RAB08E34 SLP054 P0000 T00670056
 
KGKJ - Meadville, Pennsylvania, USA
Distance from station: W 86mi, 138km
Updated: Sat, 20-Oct-2018 8:53pm EDT
Light rain, Overcast
Light rain, Overcast
 Wind from W
Wind: W 10 mph , 17 km/h
Temperature: 39°F , 4°C
Wind Chill: 32°F , 0°C
Dew Point: 39°F , 4°C
Humidity: 100%
Barometer: 29.73 inHg , 1006.8 hPa
Summary: Light Rain
Clouds: Overcast
Visibility: 10 miles , 16 km
Cloud details: Mostly Cloudy 1600 ft
Mostly Cloudy 3400 ft
Overcast 7000 ft
2018/10/21 00:53 KGKJ 210053Z AUTO 26009KT 10SM -RA BKN016 BKN034 OVC070 04/04 A2973 RMK AO2 RAE03B13 SLP071 P0004 T00440039
KERI - Erie, Pennsylvania, USA
Distance from station: WNW 87mi, 140km
Updated: Sat, 20-Oct-2018 8:51pm EDT
Overcast
Overcast
 Wind from NNW
Wind: NNW 17 mph , 28 km/h, Gust: 36 mph , 57 km/h
Temperature: 46°F , 8°C
Wind Chill: 39°F , 4°C
Dew Point: 39°F , 4°C
Humidity: 76%
Barometer: 29.72 inHg , 1006.4 hPa
Clouds: Overcast
Visibility: 10 miles , 16 km
Cloud details: Mostly Cloudy 1600 ft
Overcast 2800 ft
2018/10/21 00:51 KERI 210051Z 34015G31KT 10SM BKN016 OVC028 08/04 A2972 RMK AO2 PK WND 32031/0046 WSHFT 0031 RAE50 SLP066 P0001 T00780044
 
KELM - Elmira, New York, USA
Distance from station: ENE 90mi, 145km
Updated: Sat, 20-Oct-2018 9:05pm EDT
Light rain, Overcast
Light rain, Overcast
 Wind from SW
Wind: SW 5 mph , 7 km/h
Temperature: 45°F , 7°C
Wind Chill: 42°F , 6°C
Dew Point: 41°F , 5°C
Humidity: 87%
Barometer: 29.66 inHg , 1004.4 hPa
Summary: Light Rain
Clouds: Overcast
Visibility: 10 miles , 16 km
Cloud details: Partly Cloudy 2900 ft
Overcast 3900 ft
2018/10/21 01:05 KELM 210105Z 23004KT 10SM -RA SCT029 OVC039 07/05 A2966 RMK AO2 P0001 T00670050
KIPT - Williamsport, Pennsylvania, USA
Distance from station: ESE 91mi, 146km
Updated: Sat, 20-Oct-2018 8:54pm EDT
Rain, Overcast
Rain, Overcast
 Wind from W
Wind: W 8 mph , 13 km/h
Temperature: 46°F , 8°C
Wind Chill: 42°F , 6°C
Dew Point: 41°F , 5°C
Humidity: 82%
Barometer: 29.69 inHg , 1005.4 hPa
Summary: Rain
Clouds: Overcast
Visibility: 7 miles , 11 km
Cloud details: Mostly Cloudy 3500 ft
Overcast 4500 ft
2018/10/21 00:54 KIPT 210054Z 28007KT 7SM RA BKN035 OVC045 08/05 A2969 RMK AO2 RAB18 SLP054 P0004 T00780050
 
KBTP - Butler Co., Pennsylvania, USA
Distance from station: SW 98mi, 157km
Updated: Sat, 20-Oct-2018 8:56pm EDT
Mostly Cloudy
Mostly Cloudy
 Wind from W
Wind: W 8 mph , 13 km/h
Temperature: 41°F , 5°C
Wind Chill: 36°F , 2°C
Dew Point: 37°F , 3°C
Humidity: 87%
Barometer: 29.77 inHg , 1008.1 hPa
Clouds: Mostly Cloudy
Visibility: 10 miles , 16 km
Cloud details: Few Clouds 1900 ft
Partly Cloudy 7000 ft
Mostly Cloudy 8000 ft
2018/10/21 00:56 KBTP 210056Z AUTO 27007KT 10SM FEW019 SCT070 BKN080 05/03 A2977 RMK AO2 RAB14E47 SLP091 P0001 T00500033
KAOO - Altoona, Pennsylvania, USA
Distance from station: S 99mi, 159km
Updated: Sat, 20-Oct-2018 8:53pm EDT
Partly Cloudy
Partly Cloudy
 Wind from calm
Wind: Calm
Temperature: 45°F , 7°C
Dew Point: 39°F , 4°C
Humidity: 81%
Barometer: 29.71 inHg , 1006.1 hPa
Clouds: Partly Cloudy
Visibility: 10 miles , 16 km
Cloud details: Few Clouds 3800 ft
Partly Cloudy 7000 ft
2018/10/21 00:53 KAOO 210053Z AUTO 00000KT 10SM FEW038 SCT070 07/04 A2971 RMK AO2 RAE2356 SLP063 P0000 T00670044
 
KPIT - Pittsburg, Pennsylvania, USA
Distance from station: SSW 126mi, 203km
Updated: Sat, 20-Oct-2018 8:51pm EDT
Light rain, Overcast
Light rain, Overcast
 Wind from WNW
Wind: WNW 21 mph , 33 km/h, Gust: 32 mph , 52 km/h
Temperature: 43°F , 6°C
Wind Chill: 34°F , 1°C
Dew Point: 37°F , 3°C
Humidity: 81%
Barometer: 29.78 inHg , 1008.5 hPa
Summary: Light Rain
Clouds: Overcast
Visibility: 10 miles , 16 km
Cloud details: Few Clouds 1500 ft
Partly Cloudy 2500 ft
Overcast 7000 ft
2018/10/21 00:51 KPIT 210051Z 29018G28KT 10SM -RA FEW015 SCT025 OVC070 06/03 A2978 RMK AO2 PK WND 31028/0042 SLP095 P0001 T00560028
KCLE - Cleveland, Ohio, USA
Distance from station: WSW 160mi, 258km
Updated: Sat, 20-Oct-2018 8:51pm EDT
Light rain, Overcast
Light rain, Overcast
 Wind from WNW
Wind: WNW 16 mph , 26 km/h, Gust: 26 mph , 43 km/h
Temperature: 43°F , 6°C
Wind Chill: 35°F , 2°C
Dew Point: 34°F , 1°C
Humidity: 71%
Barometer: 29.83 inHg , 1010.2 hPa
Summary: Light Rain
Clouds: Overcast
Visibility: 10 miles , 16 km
Cloud details: Mostly Cloudy 2500 ft
Mostly Cloudy 4000 ft
Overcast 10000 ft
2018/10/21 00:51 KCLE 210051Z 30014G23KT 10SM -RA BKN025 BKN040 OVC100 06/01 A2983 RMK AO2 PK WND 29029/0011 RAB15 SLP104 P0006 T00610011 $